sensor_id;sensor_type;location;lat;lon;timestamp;P1;durP1;ratioP1;P2;durP2;ratioP2
22138;SDS011;25815;52.582;13.408;2023-04-16T00:02:17;36.38;;;24.13;;
22138;SDS011;25815;52.582;13.408;2023-04-16T00:04:43;33.88;;;24.40;;
22138;SDS011;25815;52.582;13.408;2023-04-16T00:07:09;32.45;;;24.35;;
22138;SDS011;25815;52.582;13.408;2023-04-16T00:09:35;31.85;;;23.77;;
22138;SDS011;25815;52.582;13.408;2023-04-16T00:12:01;33.97;;;25.10;;
22138;SDS011;25815;52.582;13.408;2023-04-16T00:14:28;33.22;;;24.40;;
22138;SDS011;25815;52.582;13.408;2023-04-16T00:16:54;33.05;;;24.45;;
22138;SDS011;25815;52.582;13.408;2023-04-16T00:19:20;35.10;;;25.80;;
22138;SDS011;25815;52.582;13.408;2023-04-16T00:21:45;35.35;;;25.17;;
22138;SDS011;25815;52.582;13.408;2023-04-16T00:24:11;34.45;;;24.45;;
22138;SDS011;25815;52.582;13.408;2023-04-16T00:26:37;33.60;;;24.83;;
22138;SDS011;25815;52.582;13.408;2023-04-16T00:29:04;34.65;;;25.50;;
22138;SDS011;25815;52.582;13.408;2023-04-16T00:31:31;37.38;;;25.35;;
22138;SDS011;25815;52.582;13.408;2023-04-16T00:33:57;33.63;;;24.15;;
22138;SDS011;25815;52.582;13.408;2023-04-16T00:36:23;33.72;;;24.67;;
22138;SDS011;25815;52.582;13.408;2023-04-16T00:38:50;34.20;;;24.55;;
22138;SDS011;25815;52.582;13.408;2023-04-16T00:41:17;36.97;;;25.27;;
22138;SDS011;25815;52.582;13.408;2023-04-16T00:43:42;34.53;;;25.30;;
22138;SDS011;25815;52.582;13.408;2023-04-16T00:46:09;54.50;;;26.85;;
22138;SDS011;25815;52.582;13.408;2023-04-16T00:48:35;36.47;;;25.52;;
22138;SDS011;25815;52.582;13.408;2023-04-16T00:51:06;38.85;;;26.30;;
22138;SDS011;25815;52.582;13.408;2023-04-16T00:53:32;34.22;;;26.00;;
22138;SDS011;25815;52.582;13.408;2023-04-16T00:55:59;35.80;;;26.70;;
22138;SDS011;25815;52.582;13.408;2023-04-16T00:58:25;35.15;;;24.77;;
22138;SDS011;25815;52.582;13.408;2023-04-16T01:00:51;35.72;;;25.23;;
22138;SDS011;25815;52.582;13.408;2023-04-16T01:03:17;34.78;;;25.92;;
22138;SDS011;25815;52.582;13.408;2023-04-16T01:05:42;33.80;;;23.83;;
22138;SDS011;25815;52.582;13.408;2023-04-16T01:08:16;33.50;;;24.25;;
22138;SDS011;25815;52.582;13.408;2023-04-16T01:10:42;35.05;;;25.10;;
22138;SDS011;25815;52.582;13.408;2023-04-16T01:13:08;36.22;;;24.63;;
22138;SDS011;25815;52.582;13.408;2023-04-16T01:15:34;33.90;;;24.23;;
22138;SDS011;25815;52.582;13.408;2023-04-16T01:18:00;32.03;;;24.15;;
22138;SDS011;25815;52.582;13.408;2023-04-16T01:20:26;32.35;;;23.75;;
22138;SDS011;25815;52.582;13.408;2023-04-16T01:22:52;33.50;;;24.38;;
22138;SDS011;25815;52.582;13.408;2023-04-16T01:25:18;34.63;;;24.50;;
22138;SDS011;25815;52.582;13.408;2023-04-16T01:27:44;32.42;;;23.58;;
22138;SDS011;25815;52.582;13.408;2023-04-16T01:30:13;34.63;;;25.08;;
22138;SDS011;25815;52.582;13.408;2023-04-16T01:32:39;33.92;;;24.25;;
22138;SDS011;25815;52.582;13.408;2023-04-16T01:35:04;35.20;;;23.27;;
22138;SDS011;25815;52.582;13.408;2023-04-16T01:37:30;34.60;;;23.63;;
22138;SDS011;25815;52.582;13.408;2023-04-16T01:39:56;36.28;;;24.48;;
22138;SDS011;25815;52.582;13.408;2023-04-16T01:42:22;32.72;;;22.98;;
22138;SDS011;25815;52.582;13.408;2023-04-16T01:44:47;32.63;;;22.45;;
22138;SDS011;25815;52.582;13.408;2023-04-16T01:47:13;32.05;;;22.58;;
22138;SDS011;25815;52.582;13.408;2023-04-16T01:49:39;33.42;;;23.13;;
22138;SDS011;25815;52.582;13.408;2023-04-16T01:52:06;33.85;;;22.60;;
22138;SDS011;25815;52.582;13.408;2023-04-16T01:54:32;32.63;;;22.45;;
22138;SDS011;25815;52.582;13.408;2023-04-16T01:57:00;33.88;;;23.15;;
22138;SDS011;25815;52.582;13.408;2023-04-16T01:59:25;32.05;;;22.55;;
22138;SDS011;25815;52.582;13.408;2023-04-16T02:01:51;32.42;;;23.52;;
22138;SDS011;25815;52.582;13.408;2023-04-16T02:04:16;33.50;;;23.33;;
22138;SDS011;25815;52.582;13.408;2023-04-16T02:06:43;33.63;;;24.08;;
22138;SDS011;25815;52.582;13.408;2023-04-16T02:09:08;35.35;;;23.92;;
22138;SDS011;25815;52.582;13.408;2023-04-16T02:11:34;34.00;;;23.08;;
22138;SDS011;25815;52.582;13.408;2023-04-16T02:13:59;32.95;;;23.48;;
22138;SDS011;25815;52.582;13.408;2023-04-16T02:16:25;32.55;;;22.85;;
22138;SDS011;25815;52.582;13.408;2023-04-16T02:18:50;34.58;;;22.63;;
22138;SDS011;25815;52.582;13.408;2023-04-16T02:21:16;32.88;;;22.13;;
22138;SDS011;25815;52.582;13.408;2023-04-16T02:23:41;32.88;;;23.00;;
22138;SDS011;25815;52.582;13.408;2023-04-16T02:26:09;35.40;;;24.60;;
22138;SDS011;25815;52.582;13.408;2023-04-16T02:28:37;34.65;;;23.92;;
22138;SDS011;25815;52.582;13.408;2023-04-16T02:31:02;36.58;;;23.88;;
22138;SDS011;25815;52.582;13.408;2023-04-16T02:33:28;34.85;;;25.48;;
22138;SDS011;25815;52.582;13.408;2023-04-16T02:35:55;37.85;;;26.10;;
22138;SDS011;25815;52.582;13.408;2023-04-16T02:38:21;36.95;;;25.30;;
22138;SDS011;25815;52.582;13.408;2023-04-16T02:40:47;42.08;;;26.73;;
22138;SDS011;25815;52.582;13.408;2023-04-16T02:43:12;42.85;;;27.40;;
22138;SDS011;25815;52.582;13.408;2023-04-16T02:45:38;45.33;;;27.42;;
22138;SDS011;25815;52.582;13.408;2023-04-16T02:48:03;40.08;;;27.55;;
22138;SDS011;25815;52.582;13.408;2023-04-16T02:50:31;44.72;;;27.83;;
22138;SDS011;25815;52.582;13.408;2023-04-16T02:52:56;40.75;;;27.58;;
22138;SDS011;25815;52.582;13.408;2023-04-16T02:55:23;41.40;;;27.58;;
22138;SDS011;25815;52.582;13.408;2023-04-16T02:57:49;44.58;;;27.33;;
22138;SDS011;25815;52.582;13.408;2023-04-16T03:00:17;41.55;;;26.42;;
22138;SDS011;25815;52.582;13.408;2023-04-16T03:02:43;41.60;;;28.35;;
22138;SDS011;25815;52.582;13.408;2023-04-16T03:05:09;43.47;;;27.02;;
22138;SDS011;25815;52.582;13.408;2023-04-16T03:07:36;40.47;;;26.75;;
22138;SDS011;25815;52.582;13.408;2023-04-16T03:10:05;41.78;;;27.17;;
22138;SDS011;25815;52.582;13.408;2023-04-16T03:12:31;40.70;;;26.63;;
22138;SDS011;25815;52.582;13.408;2023-04-16T03:14:57;40.85;;;26.55;;
22138;SDS011;25815;52.582;13.408;2023-04-16T03:17:22;40.58;;;26.45;;
22138;SDS011;25815;52.582;13.408;2023-04-16T03:19:48;41.45;;;26.08;;
22138;SDS011;25815;52.582;13.408;2023-04-16T03:22:15;37.53;;;25.55;;
22138;SDS011;25815;52.582;13.408;2023-04-16T03:24:40;42.22;;;26.00;;
22138;SDS011;25815;52.582;13.408;2023-04-16T03:27:06;41.08;;;24.92;;
22138;SDS011;25815;52.582;13.408;2023-04-16T03:29:35;39.75;;;24.33;;
22138;SDS011;25815;52.582;13.408;2023-04-16T03:32:01;36.05;;;24.10;;
22138;SDS011;25815;52.582;13.408;2023-04-16T03:34:27;40.88;;;25.00;;
22138;SDS011;25815;52.582;13.408;2023-04-16T03:36:53;35.08;;;24.10;;
22138;SDS011;25815;52.582;13.408;2023-04-16T03:39:19;34.42;;;23.58;;
22138;SDS011;25815;52.582;13.408;2023-04-16T03:41:44;34.30;;;22.15;;
22138;SDS011;25815;52.582;13.408;2023-04-16T03:44:11;34.95;;;23.20;;
22138;SDS011;25815;52.582;13.408;2023-04-16T03:46:37;35.65;;;22.75;;
22138;SDS011;25815;52.582;13.408;2023-04-16T03:49:03;38.25;;;24.02;;
22138;SDS011;25815;52.582;13.408;2023-04-16T03:51:31;39.47;;;24.33;;
22138;SDS011;25815;52.582;13.408;2023-04-16T03:53:58;39.17;;;23.42;;
22138;SDS011;25815;52.582;13.408;2023-04-16T03:56:27;39.77;;;25.53;;
22138;SDS011;25815;52.582;13.408;2023-04-16T03:58:54;38.85;;;24.20;;
22138;SDS011;25815;52.582;13.408;2023-04-16T04:01:20;38.55;;;23.80;;
22138;SDS011;25815;52.582;13.408;2023-04-16T04:03:45;42.00;;;25.70;;
22138;SDS011;25815;52.582;13.408;2023-04-16T04:06:11;39.65;;;25.02;;
22138;SDS011;25815;52.582;13.408;2023-04-16T04:08:36;42.15;;;25.70;;
22138;SDS011;25815;52.582;13.408;2023-04-16T04:11:02;40.70;;;25.08;;
22138;SDS011;25815;52.582;13.408;2023-04-16T04:13:29;40.58;;;26.27;;
22138;SDS011;25815;52.582;13.408;2023-04-16T04:15:55;41.03;;;25.58;;
22138;SDS011;25815;52.582;13.408;2023-04-16T04:18:21;39.72;;;24.88;;
22138;SDS011;25815;52.582;13.408;2023-04-16T04:20:47;43.10;;;26.58;;
22138;SDS011;25815;52.582;13.408;2023-04-16T04:23:12;39.70;;;26.30;;
22138;SDS011;25815;52.582;13.408;2023-04-16T04:25:38;40.00;;;25.35;;
22138;SDS011;25815;52.582;13.408;2023-04-16T04:28:03;48.00;;;26.08;;
22138;SDS011;25815;52.582;13.408;2023-04-16T04:30:29;45.58;;;26.02;;
22138;SDS011;25815;52.582;13.408;2023-04-16T04:32:55;43.58;;;26.58;;
22138;SDS011;25815;52.582;13.408;2023-04-16T04:35:23;42.22;;;24.85;;
22138;SDS011;25815;52.582;13.408;2023-04-16T04:37:49;43.65;;;27.08;;
22138;SDS011;25815;52.582;13.408;2023-04-16T04:40:18;44.83;;;27.05;;
22138;SDS011;25815;52.582;13.408;2023-04-16T04:42:45;44.22;;;24.63;;
22138;SDS011;25815;52.582;13.408;2023-04-16T04:45:11;41.65;;;26.67;;
22138;SDS011;25815;52.582;13.408;2023-04-16T04:47:36;43.45;;;26.33;;
22138;SDS011;25815;52.582;13.408;2023-04-16T04:50:02;47.33;;;26.55;;
22138;SDS011;25815;52.582;13.408;2023-04-16T04:52:28;42.55;;;26.63;;
22138;SDS011;25815;52.582;13.408;2023-04-16T04:54:53;42.17;;;27.30;;
22138;SDS011;25815;52.582;13.408;2023-04-16T04:57:19;45.55;;;26.67;;
22138;SDS011;25815;52.582;13.408;2023-04-16T04:59:44;43.97;;;25.48;;
22138;SDS011;25815;52.582;13.408;2023-04-16T05:02:10;46.78;;;25.70;;
22138;SDS011;25815;52.582;13.408;2023-04-16T05:04:36;43.72;;;26.35;;
22138;SDS011;25815;52.582;13.408;2023-04-16T05:07:02;45.38;;;26.15;;
22138;SDS011;25815;52.582;13.408;2023-04-16T05:09:27;40.90;;;24.25;;
22138;SDS011;25815;52.582;13.408;2023-04-16T05:11:53;41.25;;;25.70;;
22138;SDS011;25815;52.582;13.408;2023-04-16T05:14:18;41.67;;;25.98;;
22138;SDS011;25815;52.582;13.408;2023-04-16T05:16:44;41.95;;;25.30;;
22138;SDS011;25815;52.582;13.408;2023-04-16T05:19:10;40.97;;;24.58;;
22138;SDS011;25815;52.582;13.408;2023-04-16T05:21:35;37.50;;;24.17;;
22138;SDS011;25815;52.582;13.408;2023-04-16T05:24:04;41.63;;;24.33;;
22138;SDS011;25815;52.582;13.408;2023-04-16T05:26:30;38.25;;;24.20;;
22138;SDS011;25815;52.582;13.408;2023-04-16T05:28:55;39.78;;;24.98;;
22138;SDS011;25815;52.582;13.408;2023-04-16T05:31:21;40.03;;;25.70;;
22138;SDS011;25815;52.582;13.408;2023-04-16T05:33:47;41.35;;;24.08;;
22138;SDS011;25815;52.582;13.408;2023-04-16T05:36:13;40.28;;;25.17;;
22138;SDS011;25815;52.582;13.408;2023-04-16T05:38:39;43.58;;;24.98;;
22138;SDS011;25815;52.582;13.408;2023-04-16T05:41:05;39.80;;;24.13;;
22138;SDS011;25815;52.582;13.408;2023-04-16T05:43:30;40.05;;;24.45;;
22138;SDS011;25815;52.582;13.408;2023-04-16T05:45:57;38.65;;;23.33;;
22138;SDS011;25815;52.582;13.408;2023-04-16T05:48:24;34.85;;;23.05;;
22138;SDS011;25815;52.582;13.408;2023-04-16T05:50:50;38.50;;;23.30;;
22138;SDS011;25815;52.582;13.408;2023-04-16T05:53:16;36.70;;;24.02;;
22138;SDS011;25815;52.582;13.408;2023-04-16T05:55:43;51.83;;;23.85;;
22138;SDS011;25815;52.582;13.408;2023-04-16T05:58:09;35.65;;;22.90;;
22138;SDS011;25815;52.582;13.408;2023-04-16T06:00:35;38.13;;;24.60;;
22138;SDS011;25815;52.582;13.408;2023-04-16T06:03:01;36.13;;;22.05;;
22138;SDS011;25815;52.582;13.408;2023-04-16T06:05:27;37.42;;;23.92;;
22138;SDS011;25815;52.582;13.408;2023-04-16T06:07:53;34.78;;;22.23;;
22138;SDS011;25815;52.582;13.408;2023-04-16T06:10:19;35.33;;;23.58;;
22138;SDS011;25815;52.582;13.408;2023-04-16T06:12:45;39.88;;;23.23;;
22138;SDS011;25815;52.582;13.408;2023-04-16T06:15:11;44.97;;;24.52;;
22138;SDS011;25815;52.582;13.408;2023-04-16T06:17:36;37.97;;;23.83;;
22138;SDS011;25815;52.582;13.408;2023-04-16T06:20:02;37.35;;;23.55;;
22138;SDS011;25815;52.582;13.408;2023-04-16T06:22:28;36.38;;;22.35;;
22138;SDS011;25815;52.582;13.408;2023-04-16T06:24:54;38.72;;;23.38;;
22138;SDS011;25815;52.582;13.408;2023-04-16T06:27:20;38.08;;;24.30;;
22138;SDS011;25815;52.582;13.408;2023-04-16T06:29:46;38.63;;;23.23;;
22138;SDS011;25815;52.582;13.408;2023-04-16T06:32:13;36.50;;;22.65;;
22138;SDS011;25815;52.582;13.408;2023-04-16T06:34:38;34.83;;;22.33;;
22138;SDS011;25815;52.582;13.408;2023-04-16T06:37:04;36.97;;;22.60;;
22138;SDS011;25815;52.582;13.408;2023-04-16T06:39:30;40.35;;;23.65;;
22138;SDS011;25815;52.582;13.408;2023-04-16T06:41:56;39.50;;;24.23;;
22138;SDS011;25815;52.582;13.408;2023-04-16T06:44:21;35.78;;;22.05;;
22138;SDS011;25815;52.582;13.408;2023-04-16T06:46:47;39.72;;;23.38;;
22138;SDS011;25815;52.582;13.408;2023-04-16T06:49:12;43.45;;;24.08;;
22138;SDS011;25815;52.582;13.408;2023-04-16T06:51:38;38.78;;;22.75;;
22138;SDS011;25815;52.582;13.408;2023-04-16T06:54:03;40.15;;;23.73;;
22138;SDS011;25815;52.582;13.408;2023-04-16T06:56:29;41.80;;;24.15;;
22138;SDS011;25815;52.582;13.408;2023-04-16T06:58:56;41.92;;;22.40;;
22138;SDS011;25815;52.582;13.408;2023-04-16T07:01:22;38.92;;;22.67;;
22138;SDS011;25815;52.582;13.408;2023-04-16T07:03:48;38.35;;;23.13;;
22138;SDS011;25815;52.582;13.408;2023-04-16T07:06:14;37.90;;;23.90;;
22138;SDS011;25815;52.582;13.408;2023-04-16T07:08:40;39.53;;;23.25;;
22138;SDS011;25815;52.582;13.408;2023-04-16T07:11:05;42.60;;;23.63;;
22138;SDS011;25815;52.582;13.408;2023-04-16T07:13:31;37.10;;;22.80;;
22138;SDS011;25815;52.582;13.408;2023-04-16T07:15:56;43.17;;;23.70;;
22138;SDS011;25815;52.582;13.408;2023-04-16T07:18:21;41.88;;;24.33;;
22138;SDS011;25815;52.582;13.408;2023-04-16T07:20:47;45.17;;;24.90;;
22138;SDS011;25815;52.582;13.408;2023-04-16T07:23:12;41.38;;;24.23;;
22138;SDS011;25815;52.582;13.408;2023-04-16T07:25:38;38.20;;;22.60;;
22138;SDS011;25815;52.582;13.408;2023-04-16T07:28:04;38.90;;;23.48;;
22138;SDS011;25815;52.582;13.408;2023-04-16T07:30:29;39.08;;;23.65;;
22138;SDS011;25815;52.582;13.408;2023-04-16T07:32:58;38.15;;;22.60;;
22138;SDS011;25815;52.582;13.408;2023-04-16T07:35:25;37.13;;;23.08;;
22138;SDS011;25815;52.582;13.408;2023-04-16T07:37:50;37.40;;;22.23;;
22138;SDS011;25815;52.582;13.408;2023-04-16T07:40:16;40.08;;;22.95;;
22138;SDS011;25815;52.582;13.408;2023-04-16T07:42:41;40.10;;;23.02;;
22138;SDS011;25815;52.582;13.408;2023-04-16T07:45:07;39.92;;;22.08;;
22138;SDS011;25815;52.582;13.408;2023-04-16T07:47:33;37.40;;;21.55;;
22138;SDS011;25815;52.582;13.408;2023-04-16T07:49:58;39.50;;;23.02;;
22138;SDS011;25815;52.582;13.408;2023-04-16T07:52:24;35.28;;;22.05;;
22138;SDS011;25815;52.582;13.408;2023-04-16T07:54:50;41.30;;;23.95;;
22138;SDS011;25815;52.582;13.408;2023-04-16T07:57:18;48.00;;;23.70;;
22138;SDS011;25815;52.582;13.408;2023-04-16T07:59:45;44.45;;;23.90;;
22138;SDS011;25815;52.582;13.408;2023-04-16T08:02:13;37.10;;;22.15;;
22138;SDS011;25815;52.582;13.408;2023-04-16T08:04:40;39.05;;;22.23;;
22138;SDS011;25815;52.582;13.408;2023-04-16T08:07:06;38.65;;;22.42;;
22138;SDS011;25815;52.582;13.408;2023-04-16T08:09:32;36.47;;;21.92;;
22138;SDS011;25815;52.582;13.408;2023-04-16T08:11:59;38.20;;;22.33;;
22138;SDS011;25815;52.582;13.408;2023-04-16T08:14:24;38.35;;;22.67;;
22138;SDS011;25815;52.582;13.408;2023-04-16T08:16:50;36.65;;;22.60;;
22138;SDS011;25815;52.582;13.408;2023-04-16T08:19:16;36.05;;;21.80;;
22138;SDS011;25815;52.582;13.408;2023-04-16T08:21:41;36.85;;;21.45;;
22138;SDS011;25815;52.582;13.408;2023-04-16T08:24:07;36.63;;;21.60;;
22138;SDS011;25815;52.582;13.408;2023-04-16T08:26:33;36.72;;;20.38;;
22138;SDS011;25815;52.582;13.408;2023-04-16T08:28:58;40.35;;;24.73;;
22138;SDS011;25815;52.582;13.408;2023-04-16T08:31:24;37.30;;;22.20;;
22138;SDS011;25815;52.582;13.408;2023-04-16T08:33:49;36.50;;;22.02;;
22138;SDS011;25815;52.582;13.408;2023-04-16T08:36:15;39.05;;;23.08;;
22138;SDS011;25815;52.582;13.408;2023-04-16T08:38:40;42.50;;;23.50;;
22138;SDS011;25815;52.582;13.408;2023-04-16T08:41:07;38.58;;;23.13;;
22138;SDS011;25815;52.582;13.408;2023-04-16T08:46:02;40.30;;;23.10;;
22138;SDS011;25815;52.582;13.408;2023-04-16T08:48:31;40.45;;;24.05;;
22138;SDS011;25815;52.582;13.408;2023-04-16T08:50:58;37.03;;;22.43;;
22138;SDS011;25815;52.582;13.408;2023-04-16T08:53:28;39.85;;;23.58;;
22138;SDS011;25815;52.582;13.408;2023-04-16T08:56:02;35.80;;;22.35;;
22138;SDS011;25815;52.582;13.408;2023-04-16T08:58:30;33.55;;;21.52;;
22138;SDS011;25815;52.582;13.408;2023-04-16T09:00:58;38.95;;;22.70;;
22138;SDS011;25815;52.582;13.408;2023-04-16T09:03:27;33.60;;;21.13;;
22138;SDS011;25815;52.582;13.408;2023-04-16T09:05:53;30.17;;;19.27;;
22138;SDS011;25815;52.582;13.408;2023-04-16T09:08:21;34.97;;;21.25;;
22138;SDS011;25815;52.582;13.408;2023-04-16T09:10:47;27.70;;;18.90;;
22138;SDS011;25815;52.582;13.408;2023-04-16T09:13:13;31.50;;;19.25;;
22138;SDS011;25815;52.582;13.408;2023-04-16T09:15:40;28.90;;;18.50;;
22138;SDS011;25815;52.582;13.408;2023-04-16T09:18:07;28.40;;;18.58;;
22138;SDS011;25815;52.582;13.408;2023-04-16T09:20:35;31.50;;;19.45;;
22138;SDS011;25815;52.582;13.408;2023-04-16T09:23:01;28.73;;;18.80;;
22138;SDS011;25815;52.582;13.408;2023-04-16T09:25:27;32.58;;;18.67;;
22138;SDS011;25815;52.582;13.408;2023-04-16T09:27:58;32.08;;;20.13;;
22138;SDS011;25815;52.582;13.408;2023-04-16T09:30:25;32.03;;;20.33;;
22138;SDS011;25815;52.582;13.408;2023-04-16T09:32:52;33.40;;;20.15;;
22138;SDS011;25815;52.582;13.408;2023-04-16T09:35:43;33.45;;;21.95;;
22138;SDS011;25815;52.582;13.408;2023-04-16T09:38:10;36.10;;;22.65;;
22138;SDS011;25815;52.582;13.408;2023-04-16T09:40:36;34.00;;;21.48;;
22138;SDS011;25815;52.582;13.408;2023-04-16T09:43:03;34.10;;;21.92;;
22138;SDS011;25815;52.582;13.408;2023-04-16T09:45:46;34.58;;;21.15;;
22138;SDS011;25815;52.582;13.408;2023-04-16T09:48:15;37.08;;;22.08;;
22138;SDS011;25815;52.582;13.408;2023-04-16T09:50:53;35.97;;;21.70;;
22138;SDS011;25815;52.582;13.408;2023-04-16T09:53:22;34.97;;;22.70;;
22138;SDS011;25815;52.582;13.408;2023-04-16T09:55:55;38.15;;;23.02;;
22138;SDS011;25815;52.582;13.408;2023-04-16T09:58:22;35.42;;;22.88;;
22138;SDS011;25815;52.582;13.408;2023-04-16T10:01:00;37.75;;;23.48;;
22138;SDS011;25815;52.582;13.408;2023-04-16T10:03:32;38.00;;;23.67;;
22138;SDS011;25815;52.582;13.408;2023-04-16T10:06:14;37.80;;;23.52;;
22138;SDS011;25815;52.582;13.408;2023-04-16T10:08:45;36.22;;;22.10;;
22138;SDS011;25815;52.582;13.408;2023-04-16T10:11:12;36.95;;;22.58;;
22138;SDS011;25815;52.582;13.408;2023-04-16T10:13:38;34.20;;;22.90;;
22138;SDS011;25815;52.582;13.408;2023-04-16T10:16:04;34.08;;;22.60;;
22138;SDS011;25815;52.582;13.408;2023-04-16T10:18:31;38.25;;;23.42;;
22138;SDS011;25815;52.582;13.408;2023-04-16T10:20:59;38.35;;;24.05;;
22138;SDS011;25815;52.582;13.408;2023-04-16T10:23:26;38.00;;;23.98;;
22138;SDS011;25815;52.582;13.408;2023-04-16T10:25:52;36.55;;;23.92;;
22138;SDS011;25815;52.582;13.408;2023-04-16T10:28:18;35.13;;;22.20;;
22138;SDS011;25815;52.582;13.408;2023-04-16T10:30:46;34.80;;;22.33;;
22138;SDS011;25815;52.582;13.408;2023-04-16T10:33:26;36.53;;;23.63;;
22138;SDS011;25815;52.582;13.408;2023-04-16T10:36:14;34.95;;;23.38;;
22138;SDS011;25815;52.582;13.408;2023-04-16T10:38:48;34.60;;;22.17;;
22138;SDS011;25815;52.582;13.408;2023-04-16T10:41:14;33.72;;;23.10;;
22138;SDS011;25815;52.582;13.408;2023-04-16T10:43:42;33.28;;;22.75;;
22138;SDS011;25815;52.582;13.408;2023-04-16T10:46:26;31.58;;;22.30;;
22138;SDS011;25815;52.582;13.408;2023-04-16T10:48:59;29.40;;;21.33;;
22138;SDS011;25815;52.582;13.408;2023-04-16T10:51:26;31.13;;;22.92;;
22138;SDS011;25815;52.582;13.408;2023-04-16T10:56:30;29.25;;;20.38;;
22138;SDS011;25815;52.582;13.408;2023-04-16T10:58:56;26.35;;;19.15;;
22138;SDS011;25815;52.582;13.408;2023-04-16T11:01:29;28.58;;;20.10;;
22138;SDS011;25815;52.582;13.408;2023-04-16T11:03:57;26.15;;;20.17;;
22138;SDS011;25815;52.582;13.408;2023-04-16T11:06:26;29.63;;;21.02;;
22138;SDS011;25815;52.582;13.408;2023-04-16T11:08:52;28.48;;;20.95;;
22138;SDS011;25815;52.582;13.408;2023-04-16T11:11:18;29.02;;;19.63;;
22138;SDS011;25815;52.582;13.408;2023-04-16T11:13:44;25.77;;;19.65;;
22138;SDS011;25815;52.582;13.408;2023-04-16T11:16:11;25.88;;;19.67;;
22138;SDS011;25815;52.582;13.408;2023-04-16T11:18:38;25.77;;;19.77;;
22138;SDS011;25815;52.582;13.408;2023-04-16T11:21:10;23.98;;;19.63;;
22138;SDS011;25815;52.582;13.408;2023-04-16T11:23:46;24.63;;;18.08;;
22138;SDS011;25815;52.582;13.408;2023-04-16T11:26:46;19.88;;;15.15;;
22138;SDS011;25815;52.582;13.408;2023-04-16T11:29:10;16.85;;;13.73;;
22138;SDS011;25815;52.582;13.408;2023-04-16T11:31:37;17.83;;;13.48;;
22138;SDS011;25815;52.582;13.408;2023-04-16T11:34:06;18.70;;;14.90;;
22138;SDS011;25815;52.582;13.408;2023-04-16T11:36:48;16.80;;;13.77;;
22138;SDS011;25815;52.582;13.408;2023-04-16T11:39:15;18.90;;;14.98;;
22138;SDS011;25815;52.582;13.408;2023-04-16T11:41:45;18.15;;;14.20;;
22138;SDS011;25815;52.582;13.408;2023-04-16T11:44:18;16.75;;;13.43;;
22138;SDS011;25815;52.582;13.408;2023-04-16T11:46:44;16.45;;;13.75;;
22138;SDS011;25815;52.582;13.408;2023-04-16T11:49:10;16.50;;;13.63;;
22138;SDS011;25815;52.582;13.408;2023-04-16T11:51:39;16.27;;;13.27;;
22138;SDS011;25815;52.582;13.408;2023-04-16T11:56:34;16.70;;;13.38;;
22138;SDS011;25815;52.582;13.408;2023-04-16T11:59:07;16.23;;;13.07;;
22138;SDS011;25815;52.582;13.408;2023-04-16T12:04:00;16.77;;;11.88;;
22138;SDS011;25815;52.582;13.408;2023-04-16T12:06:26;15.05;;;11.73;;
22138;SDS011;25815;52.582;13.408;2023-04-16T12:08:52;14.80;;;11.27;;
22138;SDS011;25815;52.582;13.408;2023-04-16T12:11:18;14.32;;;11.35;;
22138;SDS011;25815;52.582;13.408;2023-04-16T12:16:29;14.38;;;10.55;;
22138;SDS011;25815;52.582;13.408;2023-04-16T12:18:58;12.95;;;10.70;;
22138;SDS011;25815;52.582;13.408;2023-04-16T12:21:34;15.55;;;11.50;;
22138;SDS011;25815;52.582;13.408;2023-04-16T12:24:00;13.52;;;11.70;;
22138;SDS011;25815;52.582;13.408;2023-04-16T12:26:26;16.33;;;12.18;;
22138;SDS011;25815;52.582;13.408;2023-04-16T12:28:52;16.52;;;11.98;;
22138;SDS011;25815;52.582;13.408;2023-04-16T12:31:18;13.40;;;10.75;;
22138;SDS011;25815;52.582;13.408;2023-04-16T12:34:01;14.50;;;11.23;;
22138;SDS011;25815;52.582;13.408;2023-04-16T12:36:27;12.77;;;10.50;;
22138;SDS011;25815;52.582;13.408;2023-04-16T12:38:53;13.27;;;10.90;;
22138;SDS011;25815;52.582;13.408;2023-04-16T12:41:19;15.63;;;11.02;;
22138;SDS011;25815;52.582;13.408;2023-04-16T12:43:45;13.10;;;10.30;;
22138;SDS011;25815;52.582;13.408;2023-04-16T12:46:11;13.25;;;10.55;;
22138;SDS011;25815;52.582;13.408;2023-04-16T12:48:37;13.65;;;10.50;;
22138;SDS011;25815;52.582;13.408;2023-04-16T12:51:03;15.73;;;11.02;;
22138;SDS011;25815;52.582;13.408;2023-04-16T12:53:29;15.30;;;10.45;;
22138;SDS011;25815;52.582;13.408;2023-04-16T12:55:55;14.30;;;10.77;;
22138;SDS011;25815;52.582;13.408;2023-04-16T12:58:21;15.57;;;10.77;;
22138;SDS011;25815;52.582;13.408;2023-04-16T13:00:47;13.75;;;10.80;;
22138;SDS011;25815;52.582;13.408;2023-04-16T13:03:13;19.27;;;10.77;;
22138;SDS011;25815;52.582;13.408;2023-04-16T13:05:39;15.18;;;10.90;;
22138;SDS011;25815;52.582;13.408;2023-04-16T13:08:05;15.02;;;10.45;;
22138;SDS011;25815;52.582;13.408;2023-04-16T13:10:31;15.43;;;11.82;;
22138;SDS011;25815;52.582;13.408;2023-04-16T13:12:57;15.40;;;10.73;;
22138;SDS011;25815;52.582;13.408;2023-04-16T13:15:23;15.00;;;10.38;;
22138;SDS011;25815;52.582;13.408;2023-04-16T13:17:49;12.07;;;10.05;;
22138;SDS011;25815;52.582;13.408;2023-04-16T13:20:15;12.82;;;10.43;;
22138;SDS011;25815;52.582;13.408;2023-04-16T13:22:41;14.80;;;9.95;;
22138;SDS011;25815;52.582;13.408;2023-04-16T13:25:07;13.48;;;10.60;;
22138;SDS011;25815;52.582;13.408;2023-04-16T13:27:33;15.85;;;10.35;;
22138;SDS011;25815;52.582;13.408;2023-04-16T13:29:59;14.52;;;11.05;;
22138;SDS011;25815;52.582;13.408;2023-04-16T13:32:25;14.10;;;9.85;;
22138;SDS011;25815;52.582;13.408;2023-04-16T13:34:51;11.80;;;9.50;;
22138;SDS011;25815;52.582;13.408;2023-04-16T13:37:17;13.85;;;10.00;;
22138;SDS011;25815;52.582;13.408;2023-04-16T13:39:43;12.57;;;9.15;;
22138;SDS011;25815;52.582;13.408;2023-04-16T13:42:09;11.60;;;9.65;;
22138;SDS011;25815;52.582;13.408;2023-04-16T13:44:35;12.18;;;10.02;;
22138;SDS011;25815;52.582;13.408;2023-04-16T13:47:01;13.82;;;9.70;;
22138;SDS011;25815;52.582;13.408;2023-04-16T13:49:27;13.52;;;9.68;;
22138;SDS011;25815;52.582;13.408;2023-04-16T13:51:53;11.93;;;9.68;;
22138;SDS011;25815;52.582;13.408;2023-04-16T13:54:19;11.32;;;9.35;;
22138;SDS011;25815;52.582;13.408;2023-04-16T13:56:45;11.20;;;8.55;;
22138;SDS011;25815;52.582;13.408;2023-04-16T13:59:10;13.23;;;9.05;;
22138;SDS011;25815;52.582;13.408;2023-04-16T14:01:36;10.75;;;8.77;;
22138;SDS011;25815;52.582;13.408;2023-04-16T14:04:02;12.40;;;9.05;;
22138;SDS011;25815;52.582;13.408;2023-04-16T14:06:30;11.43;;;8.50;;
22138;SDS011;25815;52.582;13.408;2023-04-16T14:08:56;11.10;;;8.30;;
22138;SDS011;25815;52.582;13.408;2023-04-16T14:11:22;13.80;;;8.93;;
22138;SDS011;25815;52.582;13.408;2023-04-16T14:13:48;10.32;;;8.13;;
22138;SDS011;25815;52.582;13.408;2023-04-16T14:16:14;12.02;;;8.55;;
22138;SDS011;25815;52.582;13.408;2023-04-16T14:18:40;10.73;;;8.75;;
22138;SDS011;25815;52.582;13.408;2023-04-16T14:21:07;10.35;;;8.00;;